Time;durP1;ratioP1;P1;durP2;ratioP2;P2;SDS_P1;SDS_P2;PMS_P1;PMS_P2;Temp;Humidity;BMP_temperature;BMP_pressure;BME280_temperature;BME280_humidity;BME280_pressure;Samples;Min_cycle;Max_cycle;Signal;HPM_P1;HPM_P2
2022/06/15 00:01:34;;;;;;;4.80;1.75;;;;;;;10.86;56.86;101404.23;1664886;86;20937;-77
2022/06/15 00:04:04;;;;;;;3.92;2.17;;;;;;;10.84;56.84;101402.94;1664709;86;20941;-77
2022/06/15 00:06:34;;;;;;;3.47;1.87;;;;;;;10.84;56.92;101402.08;1664781;86;20977;-77
2022/06/15 00:09:00;;;;;;;4.78;1.62;;;;;;;10.83;56.98;101399.06;1663769;86;21067;-78
2022/06/15 00:11:33;;;;;;;3.92;1.82;;;;;;;10.83;57.04;101401.65;1662740;86;21072;-78
2022/06/15 00:14:04;;;;;;;6.05;2.42;;;;;;;10.82;57.14;101394.75;1663095;86;21136;-78
2022/06/15 00:16:31;;;;;;;3.22;1.65;;;;;;;10.79;57.17;101398.22;1663750;85;20902;-78
2022/06/15 00:18:57;;;;;;;2.75;1.67;;;;;;;10.77;57.23;101397.36;1663937;86;21052;-78
2022/06/15 00:21:24;;;;;;;2.87;1.65;;;;;;;10.76;57.32;101397.37;1662791;86;21343;-78
2022/06/15 00:23:51;;;;;;;7.00;2.08;;;;;;;10.75;57.35;101399.09;1651076;86;21092;-78
2022/06/15 00:26:18;;;;;;;5.70;1.85;;;;;;;10.71;57.38;101397.39;1662833;86;21067;-78
2022/06/15 00:28:45;;;;;;;4.17;1.70;;;;;;;10.69;57.46;101391.80;1662936;86;21073;-78
2022/06/15 00:31:11;;;;;;;7.70;1.87;;;;;;;10.67;57.55;101397.41;1662631;86;21084;-77
2022/06/15 00:33:38;;;;;;;4.42;2.15;;;;;;;10.64;57.63;101394.40;1662127;85;21594;-77
2022/06/15 00:36:09;;;;;;;5.70;1.50;;;;;;;10.63;57.65;101394.41;1662570;86;21068;-77
2022/06/15 00:38:40;;;;;;;4.05;2.00;;;;;;;10.59;57.72;101393.12;1662231;86;21095;-77
2022/06/15 00:41:11;;;;;;;3.50;2.08;;;;;;;10.57;57.77;101396.58;1664385;85;20949;-77
2022/06/15 00:43:43;;;;;;;4.37;2.25;;;;;;;10.52;57.81;101394.00;1662373;86;21441;-77
2022/06/15 00:46:39;;;;;;;2.83;1.50;;;;;;;10.48;57.87;101397.47;1661621;86;21143;-77
2022/06/15 00:49:25;;;;;;;4.28;1.77;;;;;;;10.45;57.94;101395.32;1664551;85;20922;-77
2022/06/15 00:52:05;;;;;;;3.92;1.90;;;;;;;10.42;57.99;101399.20;1664708;86;20965;-77
2022/06/15 00:54:32;;;;;;;3.75;1.55;;;;;;;10.41;57.99;101397.05;1651462;86;20902;-77
2022/06/15 00:56:59;;;;;;;3.22;1.35;;;;;;;10.38;58.06;101398.81;1664646;86;20953;-77
2022/06/15 00:59:56;;;;;;;2.37;1.50;;;;;;;10.33;58.09;101401.41;1628230;85;20961;-77
2022/06/15 01:02:24;;;;;;;2.63;1.73;;;;;;;10.28;58.13;101404.44;1639577;86;21357;-77
2022/06/15 01:05:02;;;;;;;3.22;1.77;;;;;;;10.23;58.20;101400.57;1626564;86;20918;-77
2022/06/15 01:07:46;;;;;;;7.50;1.87;;;;;;;10.22;58.27;101400.14;1663943;86;21006;-77
2022/06/15 01:10:35;;;;;;;6.25;1.87;;;;;;;10.20;58.33;101398.42;1670450;85;20945;-77
2022/06/15 01:13:26;;;;;;;1.70;1.32;;;;;;;10.18;58.37;101398.39;1594495;87;21007;-77
2022/06/15 01:16:12;;;;;;;2.58;1.50;;;;;;;10.17;58.42;101404.86;1647827;86;20966;-77
2022/06/15 01:18:55;;;;;;;2.37;1.65;;;;;;;10.12;58.49;101401.41;1645538;86;20937;-77
2022/06/15 01:21:53;;;;;;;4.72;1.87;;;;;;;10.11;58.54;101399.70;1661428;86;20934;-77
2022/06/15 01:24:41;;;;;;;4.50;1.87;;;;;;;10.10;58.63;101397.97;1664880;86;20949;-77
2022/06/15 01:27:34;;;;;;;4.35;2.22;;;;;;;10.09;58.68;101394.53;1663764;86;21003;-76
2022/06/15 01:30:20;;;;;;;3.70;2.02;;;;;;;10.07;58.72;101394.10;1651302;86;21008;-76
2022/06/15 01:32:59;;;;;;;;;;;;;;;10.06;58.81;101394.53;1644552;87;20972;-76
2022/06/15 01:35:55;;;;;;;5.30;1.95;;;;;;;10.06;59.42;101390.66;1640234;87;20111;-76
2022/06/15 01:38:40;;;;;;;3.83;1.72;;;;;;;10.05;58.88;101394.10;1569778;91;20977;-76
2022/06/15 01:41:24;;;;;;;4.05;2.33;;;;;;;10.03;58.94;101393.67;1547197;91;21111;-77
2022/06/15 01:44:05;;;;;;;6.42;2.40;;;;;;;10.01;59.01;101395.41;1588047;90;21080;-77
2022/06/15 01:46:32;;;;;;;3.52;2.22;;;;;;;10.02;59.08;101401.00;1587981;90;21061;-76
2022/06/15 01:49:00;;;;;;;4.30;1.82;;;;;;;10.03;59.13;101395.83;1569848;90;21084;-77
2022/06/15 01:51:32;;;;;;;4.50;2.17;;;;;;;10.04;59.19;101396.26;1590802;90;21052;-77
2022/06/15 01:54:04;;;;;;;4.25;1.80;;;;;;;10.05;59.24;101397.98;1590647;89;20946;-77
2022/06/15 01:56:37;;;;;;;4.65;1.90;;;;;;;10.07;59.33;101394.10;1590784;90;21084;-77
2022/06/15 01:59:09;;;;;;;4.00;1.95;;;;;;;10.05;59.38;101391.95;1591011;89;20913;-76
2022/06/15 02:01:56;;;;;;;5.83;2.27;;;;;;;10.04;59.43;101395.40;1603005;89;20988;-77
2022/06/15 02:05:06;;;;;;;2.85;1.90;;;;;;;10.04;59.47;101397.98;1603712;89;20937;-77
2022/06/15 02:07:54;;;;;;;6.08;2.22;;;;;;;10.04;59.56;101402.72;1566445;89;21510;-77
2022/06/15 02:10:40;;;;;;;7.40;2.05;;;;;;;10.05;59.66;101406.16;1603713;89;20909;-77
2022/06/15 02:13:20;;;;;;;5.53;2.35;;;;;;;10.05;59.69;101400.56;1603826;89;20949;-77
2022/06/15 02:15:53;;;;;;;3.80;2.60;;;;;;;10.07;59.73;101401.86;1640227;85;20979;-77
2022/06/15 02:18:22;;;;;;;4.05;1.70;;;;;;;10.08;59.78;101403.58;1682997;84;20948;-77
2022/06/15 02:21:02;;;;;;;3.55;2.17;;;;;;;10.08;59.82;101398.41;1682946;85;20947;-77
2022/06/15 02:23:32;;;;;;;4.15;2.37;;;;;;;10.09;59.91;101396.25;1682920;84;20975;-77
2022/06/15 02:26:02;;;;;;;6.67;2.42;;;;;;;10.10;59.91;101395.39;1682875;85;20939;-77
2022/06/15 02:28:42;;;;;;;6.60;2.33;;;;;;;10.10;59.97;101392.38;1682746;85;20955;-77
2022/06/15 02:31:10;;;;;;;3.55;2.02;;;;;;;10.12;60.01;101392.38;1678254;85;20953;-77
2022/06/15 02:33:40;;;;;;;4.28;2.15;;;;;;;10.12;60.01;101391.08;1682926;84;20983;-77
2022/06/15 02:36:07;;;;;;;4.05;2.30;;;;;;;10.12;60.08;101392.38;1683277;85;20991;-77
2022/06/15 02:38:35;;;;;;;4.33;2.52;;;;;;;10.13;60.15;101401.84;1682822;84;20947;-77
2022/06/15 02:41:01;;;;;;;4.87;2.37;;;;;;;10.11;60.17;101400.98;1663216;85;20965;-77
2022/06/15 02:43:31;;;;;;;3.77;2.10;;;;;;;10.12;60.21;101400.13;1663225;86;20946;-77
2022/06/15 02:46:00;;;;;;;4.65;2.42;;;;;;;10.11;60.27;101394.53;1663131;86;20919;-78
2022/06/15 02:48:27;;;;;;;6.10;3.37;;;;;;;10.12;60.31;101388.50;1663184;86;20907;-77
2022/06/15 02:51:05;;;;;;;4.72;2.52;;;;;;;10.11;60.40;101395.39;1621917;87;20967;-77
2022/06/15 02:53:35;;;;;;;6.22;2.40;;;;;;;10.12;60.46;101397.55;1662360;86;20967;-77
2022/06/15 02:56:03;;;;;;;6.60;2.87;;;;;;;10.12;60.54;101399.70;1663198;86;20963;-77
2022/06/15 02:58:41;;;;;;;5.67;2.83;;;;;;;10.13;60.57;101397.54;1635237;87;20950;-77
2022/06/15 03:01:08;;;;;;;7.10;3.22;;;;;;;10.16;60.63;101398.83;1632731;87;20951;-78
2022/06/15 03:03:48;;;;;;;5.15;2.90;;;;;;;10.18;60.67;101407.44;1637849;86;20916;-77
2022/06/15 03:06:18;;;;;;;6.12;2.55;;;;;;;10.20;60.71;101407.47;1636524;85;20900;-77
2022/06/15 03:08:44;;;;;;;5.83;2.62;;;;;;;10.21;60.75;101407.90;1636263;87;20927;-77
2022/06/15 03:11:11;;;;;;;4.62;2.77;;;;;;;10.24;60.78;101410.48;1636804;87;20931;-77
2022/06/15 03:13:37;;;;;;;6.28;3.02;;;;;;;10.25;60.84;101409.19;1636604;87;28100;-77
2022/06/15 03:16:05;;;;;;;4.12;2.27;;;;;;;10.27;60.91;101413.92;1636670;86;20956;-76
2022/06/15 03:18:32;;;;;;;6.20;2.50;;;;;;;10.31;60.95;101415.20;1636578;87;20971;-76
2022/06/15 03:21:02;;;;;;;3.80;2.27;;;;;;;10.35;60.98;101420.80;1636701;87;25887;-77
2022/06/15 03:23:32;;;;;;;5.87;2.67;;;;;;;10.39;61.02;101411.74;1636646;87;20932;-77
2022/06/15 03:26:01;;;;;;;3.27;2.77;;;;;;;10.41;61.05;101415.16;1636365;86;20888;-77
2022/06/15 03:28:28;;;;;;;4.30;2.80;;;;;;;10.47;61.09;101414.27;1636655;87;20913;-77
2022/06/15 03:30:56;;;;;;;3.40;2.20;;;;;;;10.50;61.11;101416.42;1636447;87;20971;-77
2022/06/15 03:33:22;;;;;;;6.50;3.05;;;;;;;10.53;61.14;101419.43;1636780;87;21554;-77
2022/06/15 03:35:50;;;;;;;4.45;2.92;;;;;;;10.56;61.21;101415.11;1636620;86;20959;-76
2022/06/15 03:38:16;;;;;;;;;;;;;;;10.60;61.29;101419.84;1638954;87;21432;-76
2022/06/15 03:40:46;;;;;;;4.55;3.12;;;;;;;10.63;61.76;101416.38;1636834;87;20118;-76
2022/06/15 03:43:17;;;;;;;5.45;2.45;;;;;;;10.66;61.36;101418.53;1636587;86;20896;-77
2022/06/15 03:45:44;;;;;;;6.00;3.20;;;;;;;10.72;61.40;101417.64;1636699;86;20939;-77
2022/06/15 03:48:11;;;;;;;;;;;;;;;10.76;61.45;101421.52;1639090;86;20927;-77
2022/06/15 03:50:38;;;;;;;4.12;2.50;;;;;;;10.79;61.97;101412.45;1636435;87;20090;-76
2022/06/15 03:53:05;;;;;;;;;;;;;;;10.82;61.54;101414.16;1638637;87;20952;-77
2022/06/15 03:55:35;;;;;;;7.37;2.67;;;;;;;10.87;62.09;101417.59;1615636;87;20110;-77
2022/06/15 03:58:02;;;;;;;4.85;3.42;;;;;;;10.93;61.62;101416.23;1635391;87;20935;-77
2022/06/15 04:00:30;;;;;;;4.58;3.08;;;;;;;11.00;61.68;101415.78;1633901;87;21554;-76
2022/06/15 04:02:57;;;;;;;3.80;2.80;;;;;;;11.06;61.69;101419.20;1620748;87;20944;-77
2022/06/15 04:05:34;;;;;;;3.77;2.50;;;;;;;11.13;61.71;101420.88;1625800;86;20975;-77
2022/06/15 04:10:47;;;;;;;4.78;2.80;;;;;;;11.27;61.88;101422.97;1621255;85;20947;-77
2022/06/15 04:13:21;;;;;;;4.17;2.90;;;;;;;11.49;61.97;101412.44;1631651;87;20955;-77
2022/06/15 04:15:48;;;;;;;6.78;2.92;;;;;;;11.66;61.97;101416.20;1636276;87;20943;-77
2022/06/15 04:18:15;;;;;;;4.05;3.17;;;;;;;11.75;61.96;101419.59;1638008;86;20880;-77
2022/06/15 04:20:42;;;;;;;6.03;3.15;;;;;;;11.83;61.97;101424.74;1631561;86;20970;-76
2022/06/15 04:23:12;;;;;;;5.28;3.37;;;;;;;11.91;62.02;101428.99;1624214;87;20970;-77
2022/06/15 04:25:42;;;;;;;6.03;3.35;;;;;;;12.03;62.07;101434.91;1617344;85;20914;-78
2022/06/15 04:28:12;;;;;;;5.83;3.02;;;;;;;12.15;62.08;101440.84;1666870;84;21395;-78
2022/06/15 04:30:39;;;;;;;8.48;3.22;;;;;;;12.25;62.09;101442.48;1659310;86;20931;-78
2022/06/15 04:33:06;;;;;;;6.87;3.37;;;;;;;12.35;62.13;101447.14;1658998;86;20943;-78
2022/06/15 04:35:32;;;;;;;;;;;;;;;12.43;62.19;101437.55;1661201;86;20971;-78
2022/06/15 04:37:58;;;;;;;;;;;;;;;12.53;62.73;101440.44;1662332;86;20151;-78
2022/06/15 04:40:25;;;;;;;7.85;3.20;;;;;;;12.70;62.72;101444.14;1660011;86;20130;-79
2022/06/15 04:42:51;;;;;;;7.33;3.35;;;;;;;12.87;62.35;101449.14;1660211;86;20968;-79
2022/06/15 04:45:18;;;;;;;6.30;3.35;;;;;;;13.02;62.27;101446.33;1659959;86;20987;-79
2022/06/15 04:47:45;;;;;;;7.33;3.10;;;;;;;13.15;62.25;101443.13;1635809;87;20939;-78
2022/06/15 04:50:14;;;;;;;7.60;2.47;;;;;;;13.29;62.32;101442.98;1636520;86;26575;-78
2022/06/15 04:52:42;;;;;;;5.28;2.80;;;;;;;13.45;62.36;101444.05;1631207;86;21026;-77
2022/06/15 04:55:14;;;;;;;8.25;2.85;;;;;;;13.62;62.33;101439.01;1662710;84;21051;-79
2022/06/15 04:57:40;;;;;;;7.58;2.70;;;;;;;13.82;62.35;101440.86;1635468;85;21380;-78
2022/06/15 05:00:13;;;;;;;7.03;2.65;;;;;;;14.13;62.49;101442.03;1635542;85;21633;-79
2022/06/15 05:02:39;;;;;;;5.03;2.40;;;;;;;14.67;62.56;101441.05;1658299;84;21050;-78
2022/06/15 05:05:06;;;;;;;5.65;2.20;;;;;;;15.35;62.66;101452.62;1668161;84;23796;-79
2022/06/15 05:07:36;;;;;;;7.75;2.55;;;;;;;16.03;62.51;101450.58;1672596;84;21135;-79
2022/06/15 05:10:06;;;;;;;6.08;2.17;;;;;;;16.77;62.35;101451.63;1687139;84;20996;-79
2022/06/15 05:12:33;;;;;;;6.08;2.27;;;;;;;17.37;62.00;101448.09;1675955;84;21495;-79
2022/06/15 05:15:00;;;;;;;4.78;2.12;;;;;;;17.84;61.74;101445.28;1677968;84;21052;-79
2022/06/15 05:17:26;;;;;;;6.70;3.00;;;;;;;18.17;61.56;101438.92;1677628;84;24882;-79
2022/06/15 05:19:56;;;;;;;10.08;3.90;;;;;;;18.43;61.37;101442.38;1675436;84;21051;-79
2022/06/15 05:22:22;;;;;;;7.28;3.40;;;;;;;18.50;61.20;101447.34;1661389;84;21016;-79
2022/06/15 05:24:49;;;;;;;13.93;4.65;;;;;;;18.55;61.17;101445.87;1682441;84;21134;-79
2022/06/15 05:27:15;;;;;;;15.23;3.87;;;;;;;18.59;61.09;101449.23;1689782;84;21282;-79
2022/06/15 05:29:41;;;;;;;12.58;3.52;;;;;;;18.57;60.94;101442.73;1659884;84;21069;-79
2022/06/15 05:32:09;;;;;;;9.88;4.37;;;;;;;18.55;60.91;101446.32;1658131;86;21586;-79
2022/06/15 05:34:36;;;;;;;6.40;3.58;;;;;;;18.57;61.09;101444.50;1658284;86;21035;-78
2022/06/15 05:37:03;;;;;;;5.90;4.20;;;;;;;18.99;61.26;101445.55;1658573;86;21530;-78
2022/06/15 05:39:29;;;;;;;;;;;;;;;19.55;61.13;101441.66;1660230;86;21715;-79
2022/06/15 05:41:55;;;;;;;3.60;2.00;;;;;;;20.12;60.54;101439.70;1657195;86;20178;-78
2022/06/15 05:47:00;;;;;;;4.83;1.87;;;;;;;21.05;60.33;101447.36;1657585;86;21543;-78
2022/06/15 05:49:28;;;;;;;5.80;2.30;;;;;;;21.52;59.97;101441.18;1658280;86;22208;-76
2022/06/15 05:51:55;;;;;;;7.62;2.20;;;;;;;21.85;59.68;101438.64;1657603;86;21021;-77
2022/06/15 05:54:22;;;;;;;3.92;1.85;;;;;;;22.10;59.63;101440.94;1658044;86;21543;-77
2022/06/15 05:56:48;;;;;;;4.95;2.15;;;;;;;22.43;59.53;101444.91;1658249;86;21469;-77
2022/06/15 05:59:14;;;;;;;3.20;1.50;;;;;;;22.76;59.36;101443.13;1658096;86;21128;-77
2022/06/15 06:01:42;;;;;;;4.80;1.67;;;;;;;23.10;59.21;101447.44;1642334;83;21096;-76
2022/06/15 06:04:14;;;;;;;4.40;1.45;;;;;;;23.37;58.85;101454.30;1633960;87;21060;-75
2022/06/15 06:06:40;;;;;;;3.67;1.57;;;;;;;23.65;58.78;101446.14;1633353;87;21144;-74
2022/06/15 06:09:07;;;;;;;4.55;1.80;;;;;;;24.02;58.58;101449.64;1633723;86;21001;-79
2022/06/15 06:11:33;;;;;;;4.22;1.65;;;;;;;24.46;58.33;101454.07;1633357;86;21628;-74
2022/06/15 06:13:59;;;;;;;3.60;1.72;;;;;;;24.90;58.15;101449.17;1644652;86;21132;-74
2022/06/15 06:16:26;;;;;;;5.12;1.60;;;;;;;25.30;57.86;101441.73;1630735;86;26002;-76
2022/06/15 06:18:52;;;;;;;3.90;1.55;;;;;;;25.73;57.67;101437.61;1632006;87;22210;-75
2022/06/15 06:21:20;;;;;;;3.77;1.60;;;;;;;26.22;57.50;101439.10;1635978;86;22252;-75
2022/06/15 06:23:48;;;;;;;2.58;1.20;;;;;;;26.59;56.99;101444.52;1636545;86;22250;-75
2022/06/15 06:26:23;;;;;;;;;;;;;;;26.73;56.67;101448.38;1637173;85;21450;-75
2022/06/15 06:28:50;;;;;;;2.40;1.40;;;;;;;26.78;55.25;101448.91;1634671;86;20510;-75
2022/06/15 06:31:22;;;;;;;3.35;1.22;;;;;;;27.03;56.36;101456.02;1632448;87;21561;-77
2022/06/15 06:33:48;;;;;;;5.58;1.27;;;;;;;27.22;55.75;101448.39;1633657;85;21451;-75
2022/06/15 06:36:31;;;;;;;1.65;1.20;;;;;;;27.49;55.46;101444.67;1634034;87;21084;-79
2022/06/15 06:39:05;;;;;;;4.12;1.42;;;;;;;27.79;54.96;101446.87;1624866;87;22151;-78
2022/06/15 06:41:33;;;;;;;3.27;1.30;;;;;;;28.00;54.46;101444.77;1615787;87;21463;-76
2022/06/15 06:44:01;;;;;;;2.98;1.30;;;;;;;28.30;53.79;101437.59;1635410;86;21434;-78
2022/06/15 06:46:27;;;;;;;2.10;1.27;;;;;;;28.62;53.56;101436.38;1647203;84;20975;-77
2022/06/15 06:48:54;;;;;;;4.55;1.37;;;;;;;28.71;52.87;101440.61;1634011;86;27299;-77
2022/06/15 06:51:20;;;;;;;2.65;1.20;;;;;;;28.69;52.80;101447.39;1640649;86;21627;-77
2022/06/15 06:53:46;;;;;;;4.80;1.00;;;;;;;29.02;52.28;101441.71;1637127;87;21671;-77
2022/06/15 06:56:13;;;;;;;2.62;1.00;;;;;;;29.42;51.90;101439.33;1636387;86;21622;-77
2022/06/15 06:58:39;;;;;;;4.20;1.27;;;;;;;29.88;51.51;101434.98;1637286;86;21626;-77
2022/06/15 07:01:05;;;;;;;;;;;;;;;30.26;50.87;101434.40;1648396;84;21761;-78
2022/06/15 07:03:32;;;;;;;2.22;1.15;;;;;;;30.48;50.64;101433.39;1661662;86;20312;-78
2022/06/15 07:06:05;;;;;;;3.00;1.00;;;;;;;30.55;50.50;101431.88;1632069;87;21075;-78
2022/06/15 07:08:37;;;;;;;3.70;1.30;;;;;;;31.02;50.23;101434.38;1631916;86;21066;-78
2022/06/15 07:11:13;;;;;;;1.82;0.90;;;;;;;31.51;49.70;101432.12;1663562;84;21533;-78
2022/06/15 07:13:40;;;;;;;;;;;;;;;31.57;48.81;101422.70;1646499;84;21104;-78
2022/06/15 07:16:11;;;;;;;4.12;0.90;;;;;;;31.26;48.75;101429.50;1660300;84;20696;-79
2022/06/15 07:18:37;;;;;;;2.83;1.10;;;;;;;31.26;48.48;101423.31;1666090;84;21189;-78
2022/06/15 07:21:08;;;;;;;2.10;0.98;;;;;;;31.14;47.65;101430.64;1644210;84;21561;-78
2022/06/15 07:23:35;;;;;;;1.82;1.10;;;;;;;31.03;47.03;101428.05;1666620;84;21608;-79
2022/06/15 07:26:10;;;;;;;2.30;1.17;;;;;;;30.34;46.05;101432.41;1656306;85;21113;-79
2022/06/15 07:28:38;;;;;;;6.67;1.10;;;;;;;29.75;45.75;101434.32;1683621;84;21025;-78
2022/06/15 07:31:05;;;;;;;3.17;0.90;;;;;;;29.19;45.25;101432.69;1666719;84;20978;-78
2022/06/15 07:33:34;;;;;;;3.95;1.40;;;;;;;28.49;44.80;101433.50;1663046;84;20955;-78
2022/06/15 07:36:00;;;;;;;2.08;1.05;;;;;;;27.85;44.48;101434.45;1680944;84;20969;-78
2022/06/15 07:38:27;;;;;;;3.67;1.00;;;;;;;27.23;44.08;101432.82;1674984;84;20948;-78
2022/06/15 07:40:53;;;;;;;;;;;;;;;26.89;43.81;101418.47;1674854;84;20922;-79
2022/06/15 07:43:22;;;;;;;1.25;0.90;;;;;;;26.48;43.62;101425.41;1659848;84;20158;-78
2022/06/15 07:45:48;;;;;;;1.82;0.98;;;;;;;26.03;43.40;101430.70;1668390;84;21439;-78
2022/06/15 07:51:03;;;;;;;2.77;1.05;;;;;;;25.85;43.16;101426.19;1662496;84;20972;-79
2022/06/15 07:53:30;;;;;;;1.75;0.95;;;;;;;26.05;42.85;101422.17;1658568;84;21566;-78
2022/06/15 07:55:57;;;;;;;5.67;0.80;;;;;;;26.32;42.77;101422.97;1685290;84;20953;-78
2022/06/15 07:58:23;;;;;;;1.07;0.82;;;;;;;26.37;42.22;101427.48;1673674;84;20991;-78
2022/06/15 08:00:51;;;;;;;1.37;0.90;;;;;;;26.03;41.87;101419.63;1662768;84;20947;-78
2022/06/15 08:03:19;;;;;;;2.92;0.95;;;;;;;25.63;41.97;101421.91;1656523;85;20939;-78
2022/06/15 08:05:49;;;;;;;2.02;0.98;;;;;;;25.46;41.81;101416.43;1662051;85;20956;-80
2022/06/15 08:08:21;;;;;;;2.75;1.17;;;;;;;25.20;41.81;101418.12;1666407;85;20973;-79
2022/06/15 08:10:49;;;;;;;1.30;0.90;;;;;;;25.01;41.72;101423.73;1669961;84;20941;-79
2022/06/15 08:13:17;;;;;;;2.90;1.27;;;;;;;24.83;41.64;101429.33;1642155;86;20942;-79
2022/06/15 08:15:46;;;;;;;1.25;0.90;;;;;;;24.73;41.59;101423.77;1653784;86;20963;-80
2022/06/15 08:18:17;;;;;;;3.47;1.02;;;;;;;24.58;41.46;101425.56;1629041;86;20951;-79
2022/06/15 08:21:00;;;;;;;1.32;0.70;;;;;;;24.27;41.28;101417.35;1650951;85;20886;-79
2022/06/15 08:23:32;;;;;;;1.82;1.00;;;;;;;23.40;41.10;101400.45;1653880;86;21085;-79
2022/06/15 08:26:03;;;;;;;1.75;0.88;;;;;;;23.40;41.10;101400.45;1655309;85;21154;-79
2022/06/15 08:28:35;;;;;;;1.22;0.75;;;;;;;23.26;41.16;101421.05;1679685;84;21112;-79
2022/06/15 08:31:02;;;;;;;3.85;0.80;;;;;;;23.32;41.35;101415.91;1640701;84;21032;-79
2022/06/15 08:33:28;;;;;;;;;;;;;;;23.35;41.14;101410.45;1679516;84;21474;-79
2022/06/15 08:35:55;;;;;;;;;;;;;;;23.31;41.09;101410.23;1666942;84;20538;-79
2022/06/15 08:38:25;;;;;;;2.12;0.80;;;;;;;23.32;41.47;101411.47;1670896;84;20212;-79
2022/06/15 08:41:09;;;;;;;1.85;0.90;;;;;;;23.56;41.37;101411.88;1672173;84;21004;-79
2022/06/15 08:43:53;;;;;;;2.80;1.15;;;;;;;23.84;41.22;101414.23;1646518;84;21109;-79
2022/06/15 08:46:57;;;;;;;3.17;0.62;;;;;;;24.27;41.26;101409.89;1652314;84;21064;-80
2022/06/15 08:49:44;;;;;;;2.02;1.17;;;;;;;24.57;41.23;101407.14;1591590;89;21172;-80
2022/06/15 08:52:31;;;;;;;1.87;0.93;;;;;;;24.95;41.31;101408.25;1641308;86;21006;-80
2022/06/15 08:55:17;;;;;;;3.58;1.10;;;;;;;25.23;41.22;101407.80;1646010;86;21046;-79
2022/06/15 08:58:04;;;;;;;2.80;1.42;;;;;;;25.24;41.16;101412.16;1653996;85;21482;-80
2022/06/15 09:00:37;;;;;;;1.50;0.75;;;;;;;25.14;41.10;101406.60;1670763;84;20890;-80
2022/06/15 09:03:33;;;;;;;3.33;1.25;;;;;;;25.04;41.00;101408.98;1658180;85;21083;-80
2022/06/15 09:06:23;;;;;;;3.35;1.00;;;;;;;24.92;41.03;101403.14;1644836;86;20945;-80
2022/06/15 09:09:18;;;;;;;4.53;1.05;;;;;;;24.98;41.07;101397.94;1644686;86;21013;-80
2022/06/15 09:15:35;;;;;;;4.90;1.00;;;;;;;25.00;40.61;101395.57;1651141;86;21072;-80
2022/06/15 09:18:07;;;;;;;2.58;0.82;;;;;;;24.92;40.66;101398.33;1627237;86;21104;-80
2022/06/15 09:20:39;;;;;;;1.87;0.78;;;;;;;24.88;40.74;101399.47;1610231;86;21101;-80
2022/06/15 09:23:10;;;;;;;0.72;0.50;;;;;;;24.79;40.73;101404.86;1641545;86;20994;-80
2022/06/15 09:25:51;;;;;;;1.67;0.85;;;;;;;24.70;40.67;101404.12;1652844;86;20990;-80
2022/06/15 09:28:43;;;;;;;3.20;0.80;;;;;;;24.55;40.64;101403.74;1651105;86;20937;-80
2022/06/15 09:31:18;;;;;;;1.27;0.90;;;;;;;24.41;40.55;101405.94;1665879;85;21309;-81
2022/06/15 09:33:50;;;;;;;3.33;0.90;;;;;;;24.33;40.44;101407.73;1665059;86;20949;-80
2022/06/15 09:36:21;;;;;;;0.95;0.80;;;;;;;24.12;40.52;101377.28;1641197;86;20957;-80
2022/06/15 09:38:48;;;;;;;9.43;1.02;;;;;;;24.32;40.48;101410.47;1652707;86;20905;-80
2022/06/15 09:41:38;;;;;;;2.47;1.12;;;;;;;24.24;40.41;101403.44;1651801;86;20985;-79
2022/06/15 09:44:40;;;;;;;2.25;0.90;;;;;;;24.23;40.51;101404.38;1657231;86;21036;-79
2022/06/15 09:47:32;;;;;;;1.00;0.70;;;;;;;24.24;40.44;101404.29;1628426;86;20969;-79
2022/06/15 09:50:03;;;;;;;1.45;0.60;;;;;;;24.16;40.34;101400.41;1622771;86;21069;-80
2022/06/15 09:52:55;;;;;;;1.55;0.78;;;;;;;24.19;40.44;101397.11;1638081;86;20922;-80
2022/06/15 09:55:41;;;;;;;1.57;0.98;;;;;;;24.25;40.35;101401.17;1658447;85;21007;-80
2022/06/15 09:58:16;;;;;;;1.65;0.90;;;;;;;24.24;40.25;101406.93;1628079;86;20936;-80
2022/06/15 10:00:45;;;;;;;5.50;0.95;;;;;;;24.13;40.21;101404.09;1630403;86;21101;-79
2022/06/15 10:03:32;;;;;;;3.75;1.07;;;;;;;24.08;40.20;101408.80;1655590;83;21548;-79
2022/06/15 10:06:02;;;;;;;;;;;;;;;24.05;40.18;101407.66;1663110;85;21055;-79
2022/06/15 10:08:36;;;;;;;1.95;0.85;;;;;;;23.91;40.21;101401.90;1647903;85;20237;-79
2022/06/15 10:11:05;;;;;;;2.75;1.20;;;;;;;23.86;40.28;101401.32;1663022;85;21099;-79
2022/06/15 10:13:37;;;;;;;1.22;0.70;;;;;;;23.87;40.28;101397.73;1652136;85;21115;-80
2022/06/15 10:16:29;;;;;;;0.68;0.55;;;;;;;23.83;40.22;101394.89;1649466;85;20960;-80
2022/06/15 10:18:59;;;;;;;3.20;0.88;;;;;;;23.81;40.28;101401.20;1649214;85;20952;-80
2022/06/15 10:21:33;;;;;;;1.85;0.88;;;;;;;23.87;40.25;101392.45;1624245;85;20985;-80
2022/06/15 10:24:07;;;;;;;4.62;0.82;;;;;;;23.84;40.12;101389.99;1651172;85;21337;-80
2022/06/15 10:26:44;;;;;;;2.90;0.70;;;;;;;23.84;40.23;101387.82;1666033;85;20957;-81
2022/06/15 10:29:23;;;;;;;;;;;;;;;23.90;40.15;101385.67;1649866;85;20940;-80
2022/06/15 10:32:08;;;;;;;3.12;0.90;;;;;;;23.95;40.19;101385.36;1628670;84;20142;-79
2022/06/15 10:34:51;;;;;;;2.47;1.02;;;;;;;23.94;40.02;101377.06;1651015;85;20908;-79
2022/06/15 10:37:26;;;;;;;3.50;0.90;;;;;;;23.76;40.08;101381.66;1646391;84;20924;-80
2022/06/15 10:39:58;;;;;;;1.98;0.82;;;;;;;23.73;40.13;101380.06;1641922;85;20939;-80
2022/06/15 10:42:43;;;;;;;4.25;1.00;;;;;;;23.74;40.05;101375.63;1660728;85;20908;-80
2022/06/15 10:45:34;;;;;;;2.92;0.75;;;;;;;23.71;40.11;101377.97;1649582;85;21391;-80
2022/06/15 10:48:17;;;;;;;3.15;0.98;;;;;;;23.73;40.07;101384.48;1647496;85;21104;-82
2022/06/15 10:51:04;;;;;;;2.15;0.85;;;;;;;23.75;40.03;101370.72;1643029;85;21626;-81
2022/06/15 10:53:36;;;;;;;3.15;0.80;;;;;;;23.84;40.12;101366.22;1635178;85;20893;-80
2022/06/15 11:02:10;;;;;;;1.47;0.70;;;;;;;23.79;39.84;101370.92;1643435;85;20971;-80
2022/06/15 11:04:51;;;;;;;2.77;0.90;;;;;;;23.76;39.88;101379.87;1666015;85;20952;-80
2022/06/15 11:07:31;;;;;;;2.50;0.90;;;;;;;23.83;39.84;101379.05;1656035;85;20924;-79
2022/06/15 11:10:06;;;;;;;3.52;1.37;;;;;;;23.74;39.59;101375.63;1667125;85;20932;-81
2022/06/15 11:12:39;;;;;;;3.30;0.82;;;;;;;23.64;39.63;101374.46;1656662;85;20931;-81
2022/06/15 11:15:20;;;;;;;1.62;0.70;;;;;;;23.61;39.71;101374.64;1657036;85;20920;-81
2022/06/15 11:18:06;;;;;;;0.72;0.50;;;;;;;23.58;39.69;101373.50;1654757;85;20972;-81
2022/06/15 11:20:55;;;;;;;0.93;0.60;;;;;;;23.59;39.72;101379.16;1653065;85;20972;-81
2022/06/15 11:23:48;;;;;;;1.45;0.88;;;;;;;23.63;39.78;101368.80;1648258;85;20937;-81
2022/06/15 11:26:52;;;;;;;1.15;0.70;;;;;;;23.74;39.81;101358.45;1687387;84;20920;-81
2022/06/15 11:29:55;;;;;;;1.25;0.75;;;;;;;23.86;39.71;101357.73;1646615;85;20965;-81
2022/06/15 11:33:20;;;;;;;1.02;0.62;;;;;;;23.95;39.66;101359.80;1666815;85;20979;-81
2022/06/15 11:36:04;;;;;;;3.25;0.60;;;;;;;23.92;39.56;101359.13;1662020;85;21089;-81
2022/06/15 11:38:55;;;;;;;2.00;0.70;;;;;;;23.95;39.71;101362.91;1692505;84;21184;-84
2022/06/15 11:41:35;;;;;;;0.75;0.47;;;;;;;23.96;39.65;101356.69;1659305;85;21073;-80
2022/06/15 11:44:07;;;;;;;2.00;0.72;;;;;;;23.88;39.58;101353.68;1679990;84;21036;-81
2022/06/15 11:47:02;;;;;;;0.90;0.70;;;;;;;23.86;39.59;101356.88;1648376;85;21074;-81
2022/06/15 11:50:04;;;;;;;3.33;0.70;;;;;;;23.81;39.55;101357.62;1681528;84;21119;-81
2022/06/15 11:52:39;;;;;;;1.95;0.60;;;;;;;23.82;39.58;101351.41;1690071;84;21135;-81
2022/06/15 11:55:40;;;;;;;4.78;0.98;;;;;;;23.88;39.57;101353.68;1696804;84;20996;-80
2022/06/15 11:58:31;;;;;;;1.50;0.72;;;;;;;23.93;39.60;101352.43;1662560;84;21053;-81
2022/06/15 12:01:33;;;;;;;2.27;0.70;;;;;;;24.03;39.48;101341.69;1671105;84;21036;-81
2022/06/15 12:04:44;;;;;;;1.52;0.60;;;;;;;24.06;39.47;101336.22;1683623;82;21079;-80
2022/06/15 12:07:18;;;;;;;1.57;0.80;;;;;;;24.20;39.45;101329.24;1668219;84;21432;-81
2022/06/15 12:10:15;;;;;;;1.22;0.60;;;;;;;24.33;39.41;101339.47;1683060;84;21533;-81
2022/06/15 12:13:02;;;;;;;2.60;0.80;;;;;;;24.30;39.25;101331.73;1676201;84;21117;-81
2022/06/15 12:15:45;;;;;;;2.75;0.68;;;;;;;24.16;39.14;101330.38;1622584;84;21622;-81
2022/06/15 12:18:48;;;;;;;2.20;0.82;;;;;;;24.03;39.20;101327.63;1676711;84;20921;-81
2022/06/15 12:21:26;;;;;;;1.35;0.75;;;;;;;23.97;39.24;101323.56;1673179;84;21416;-80